createdAt,value
2018-10-07T00:01:02.512Z,75.41
2018-10-07T00:03:39.943Z,76.39
2018-10-07T00:06:19.114Z,75.82
2018-10-07T00:08:55.796Z,75.94
2018-10-07T00:11:36.109Z,76.04
2018-10-07T00:14:15.663Z,76.02
2018-10-07T00:16:54.637Z,75.41
2018-10-07T00:19:33.644Z,75.98
2018-10-07T00:22:12.422Z,75.14
2018-10-07T00:24:51.075Z,75.26
2018-10-07T00:27:29.028Z,75.57
2018-10-07T00:30:07.387Z,74.78
2018-10-07T00:32:45.665Z,75.11
2018-10-07T00:35:21.848Z,75.36
2018-10-07T00:37:51.445Z,75.49
2018-10-07T00:40:20.979Z,75.58
2018-10-07T00:42:50.539Z,75.32
2018-10-07T00:45:20.065Z,75.01
2018-10-07T00:47:49.615Z,75.40
2018-10-07T00:50:19.177Z,74.91
2018-10-07T00:52:48.727Z,74.74
2018-10-07T00:55:18.312Z,74.91
2018-10-07T00:57:47.857Z,74.56
2018-10-07T01:00:19.187Z,74.38
2018-10-07T01:02:48.873Z,74.53
2018-10-07T01:05:18.437Z,74.04
2018-10-07T01:07:48.001Z,73.95
2018-10-07T01:10:17.548Z,73.80
2018-10-07T01:12:47.077Z,74.39
2018-10-07T01:15:16.605Z,75.24
2018-10-07T01:17:53.787Z,75.45
2018-10-07T01:20:23.381Z,75.52
2018-10-07T01:22:53.304Z,75.78
2018-10-07T01:25:22.839Z,75.72
2018-10-07T01:27:52.426Z,75.89
2018-10-07T01:30:23.674Z,76.06
2018-10-07T01:32:55.156Z,75.71
2018-10-07T01:35:24.991Z,76.11
2018-10-07T01:37:54.561Z,76.10
2018-10-07T01:40:24.117Z,75.69
2018-10-07T01:42:53.630Z,75.57
2018-10-07T01:45:23.205Z,75.48
2018-10-07T01:47:52.755Z,75.63
2018-10-07T01:50:22.289Z,75.93
2018-10-07T01:52:51.877Z,75.94
2018-10-07T01:55:21.406Z,75.62
2018-10-07T01:57:50.956Z,75.76
2018-10-07T02:00:20.486Z,75.42
2018-10-07T02:02:50.045Z,75.58
2018-10-07T02:05:19.576Z,75.24
2018-10-07T02:07:49.101Z,75.46
2018-10-07T02:10:18.642Z,75.56
2018-10-07T02:12:48.206Z,75.12
2018-10-07T02:15:17.750Z,75.20
2018-10-07T02:17:47.310Z,75.28
2018-10-07T02:20:16.843Z,75.21
2018-10-07T02:22:46.392Z,75.03
2018-10-07T02:25:15.925Z,74.97
2018-10-07T02:27:45.504Z,75.06
2018-10-07T02:30:15.132Z,75.04
2018-10-07T02:32:44.661Z,74.70
2018-10-07T02:35:14.220Z,74.45
2018-10-07T02:37:43.778Z,74.88
2018-10-07T02:40:13.341Z,75.18
2018-10-07T02:42:42.891Z,74.75
2018-10-07T02:45:12.489Z,74.59
2018-10-07T02:47:42.091Z,74.50
2018-10-07T02:50:20.130Z,75.02
2018-10-07T02:52:52.559Z,75.28
2018-10-07T02:55:26.431Z,74.77
2018-10-07T02:57:57.095Z,74.69
2018-10-07T03:00:26.638Z,74.66
2018-10-07T03:02:56.187Z,74.75
2018-10-07T03:05:25.712Z,75.12
2018-10-07T03:07:55.243Z,74.76
2018-10-07T03:10:24.774Z,74.94
2018-10-07T03:12:54.318Z,75.15
2018-10-07T03:15:23.856Z,75.03
2018-10-07T03:17:53.494Z,75.13
2018-10-07T03:20:23.048Z,74.77
2018-10-07T03:22:52.605Z,75.08
2018-10-07T03:25:22.198Z,75.20
2018-10-07T03:27:51.758Z,74.97
2018-10-07T03:30:21.301Z,75.32
2018-10-07T03:32:51.169Z,74.81
2018-10-07T03:35:20.869Z,75.30
2018-10-07T03:37:50.405Z,75.09
2018-10-07T03:40:20.117Z,74.95
2018-10-07T03:42:49.798Z,74.55
2018-10-07T03:45:19.498Z,74.89
2018-10-07T03:47:49.061Z,74.38
2018-10-07T03:50:18.709Z,74.32
2018-10-07T03:52:48.263Z,75.08
2018-10-07T03:55:17.813Z,74.49
2018-10-07T03:57:47.354Z,75.14
2018-10-07T04:00:16.930Z,75.02
2018-10-07T04:02:46.503Z,75.05
2018-10-07T04:05:16.119Z,75.25
2018-10-07T04:07:45.720Z,75.32
2018-10-07T04:10:15.237Z,75.77
2018-10-07T04:12:44.802Z,75.85
2018-10-07T04:15:14.345Z,75.83
2018-10-07T04:17:43.895Z,76.09
2018-10-07T04:20:13.454Z,75.92
2018-10-07T04:22:43.037Z,75.93
2018-10-07T04:25:12.587Z,75.82
2018-10-07T04:27:42.130Z,76.48
2018-10-07T04:30:11.670Z,76.02
2018-10-07T04:32:41.205Z,76.08
2018-10-07T04:35:10.768Z,76.17
2018-10-07T04:37:40.302Z,76.02
2018-10-07T04:40:09.504Z,75.64
2018-10-07T04:42:39.061Z,75.46
2018-10-07T04:45:08.626Z,75.48
2018-10-07T04:47:38.182Z,75.87
2018-10-07T04:50:07.878Z,76.07
2018-10-07T04:52:37.599Z,76.37
2018-10-07T04:55:07.186Z,76.51
2018-10-07T04:57:36.728Z,76.19
2018-10-07T05:00:06.371Z,76.05
2018-10-07T05:02:35.930Z,76.36
2018-10-07T05:05:06.862Z,76.33
2018-10-07T05:07:36.500Z,76.78
2018-10-07T05:11:13.981Z,76.67
2018-10-07T05:13:51.618Z,76.97
2018-10-07T05:16:30.534Z,77.09
2018-10-07T05:19:00.960Z,77.43
2018-10-07T05:21:30.878Z,77.12
2018-10-07T05:24:00.795Z,77.03
2018-10-07T05:26:30.793Z,77.62
2018-10-07T05:29:00.616Z,77.43
2018-10-07T05:31:30.442Z,77.43
2018-10-07T05:34:00.242Z,77.83
2018-10-07T05:36:30.061Z,77.54
2018-10-07T05:38:59.966Z,77.89
2018-10-07T05:41:29.870Z,77.85
2018-10-07T05:43:59.739Z,77.89
2018-10-07T05:46:29.796Z,78.58
2018-10-07T05:48:59.726Z,78.33
2018-10-07T05:51:29.905Z,78.43
2018-10-07T05:53:59.760Z,78.46
2018-10-07T05:56:29.661Z,78.47
2018-10-07T05:58:59.705Z,78.45
2018-10-07T06:01:40.491Z,78.66
2018-10-07T06:04:22.860Z,78.81
2018-10-07T06:06:54.549Z,79.06
2018-10-07T06:09:29.362Z,79.27
2018-10-07T06:11:59.269Z,78.92
2018-10-07T06:14:45.567Z,79.16
2018-10-07T06:17:15.580Z,78.86
2018-10-07T06:19:45.393Z,78.79
2018-10-07T06:22:15.401Z,79.01
2018-10-07T06:24:45.843Z,79.01
2018-10-07T06:27:15.662Z,79.18
2018-10-07T06:29:46.340Z,78.87
2018-10-07T06:32:16.209Z,78.66
2018-10-07T06:34:46.106Z,79.13
2018-10-07T06:37:15.935Z,78.70
2018-10-07T06:39:45.758Z,78.43
2018-10-07T06:42:15.676Z,78.93
2018-10-07T06:44:45.756Z,78.84
2018-10-07T06:47:15.819Z,78.88
2018-10-07T06:49:45.782Z,78.91
2018-10-07T06:52:15.712Z,78.51
2018-10-07T06:57:30.157Z,78.68
2018-10-07T07:00:07.323Z,78.67
2018-10-07T07:02:45.202Z,78.38
2018-10-07T07:05:14.726Z,78.87
2018-10-07T07:07:44.270Z,78.41
2018-10-07T07:10:13.814Z,78.55
2018-10-07T07:12:43.442Z,78.36
2018-10-07T07:15:12.977Z,78.48
2018-10-07T07:17:48.346Z,78.28
2018-10-07T07:20:21.098Z,78.76
2018-10-07T07:22:50.682Z,78.34
2018-10-07T07:25:20.234Z,78.39
2018-10-07T07:27:49.921Z,77.79
2018-10-07T07:30:19.498Z,77.84
2018-10-07T07:32:49.110Z,77.67
2018-10-07T07:35:18.701Z,77.75
2018-10-07T07:37:48.279Z,77.41
2018-10-07T07:40:17.840Z,77.57
2018-10-07T07:42:47.401Z,77.63
2018-10-07T07:45:16.991Z,77.85
2018-10-07T07:47:46.558Z,77.56
2018-10-07T07:50:19.400Z,77.25
2018-10-07T07:52:48.959Z,77.40
2018-10-07T07:55:18.507Z,77.46
2018-10-07T07:57:48.095Z,77.05
2018-10-07T08:00:17.789Z,76.88
2018-10-07T08:02:48.452Z,76.71
2018-10-07T08:05:18.010Z,77.31
2018-10-07T08:07:47.738Z,76.62
2018-10-07T08:10:18.588Z,75.94
2018-10-07T08:12:48.180Z,76.06
2018-10-07T08:15:17.816Z,76.02
2018-10-07T08:17:47.486Z,75.63
2018-10-07T08:20:17.263Z,75.19
2018-10-07T08:22:47.042Z,74.98
2018-10-07T08:25:17.934Z,74.77
2018-10-07T08:27:47.579Z,74.74
2018-10-07T08:30:17.213Z,74.20
2018-10-07T08:32:46.992Z,73.84
2018-10-07T08:35:16.609Z,71.45
2018-10-07T08:37:46.238Z,71.77
2018-10-07T08:40:15.893Z,72.30
2018-10-07T08:42:45.472Z,71.78
2018-10-07T08:45:15.148Z,71.49
2018-10-07T08:47:45.466Z,71.46
2018-10-07T08:50:15.111Z,71.53
2018-10-07T08:52:44.748Z,71.33
2018-10-07T08:55:14.331Z,70.55
2018-10-07T08:57:43.953Z,70.31
2018-10-07T09:00:15.097Z,69.96
2018-10-07T09:02:44.631Z,69.66
2018-10-07T09:05:14.190Z,69.25
2018-10-07T09:07:44.797Z,68.48
2018-10-07T09:10:14.366Z,68.18
2018-10-07T09:12:43.932Z,67.42
2018-10-07T09:15:13.506Z,67.35
2018-10-07T09:17:43.082Z,66.65
2018-10-07T09:20:12.644Z,66.15
2018-10-07T09:22:42.222Z,65.17
2018-10-07T09:25:11.794Z,64.71
2018-10-07T09:27:53.357Z,64.72
2018-10-07T09:30:23.004Z,64.17
2018-10-07T09:32:52.683Z,63.42
2018-10-07T09:35:22.174Z,63.12
2018-10-07T09:37:51.800Z,62.06
2018-10-07T09:40:21.382Z,61.83
2018-10-07T09:42:53.353Z,61.54
2018-10-07T09:45:22.970Z,60.34
2018-10-07T09:47:52.601Z,60.06
2018-10-07T09:50:22.470Z,58.89
2018-10-07T09:52:52.369Z,58.33
2018-10-07T09:55:21.923Z,58.36
2018-10-07T09:57:51.534Z,58.12
2018-10-07T10:00:51.419Z,58.13
2018-10-07T10:03:20.966Z,57.41
2018-10-07T10:05:50.535Z,57.43
2018-10-07T10:08:20.135Z,56.99
2018-10-07T10:10:49.679Z,56.87
2018-10-07T10:13:19.227Z,55.54
2018-10-07T10:15:48.782Z,55.91
2018-10-07T10:18:26.311Z,55.31
2018-10-07T10:21:04.703Z,54.66
2018-10-07T10:26:08.328Z,54.43
2018-10-07T10:28:51.170Z,54.13
2018-10-07T10:31:31.442Z,53.82
2018-10-07T10:34:12.422Z,53.32
2018-10-07T10:37:00.395Z,52.44
2018-10-07T10:39:50.358Z,53.59
2018-10-07T10:43:32.592Z,53.58
2018-10-07T10:46:19.210Z,53.59
2018-10-07T10:49:29.598Z,52.80
2018-10-07T10:52:07.567Z,53.33
2018-10-07T10:54:43.479Z,52.84
2018-10-07T10:57:19.210Z,53.46
2018-10-07T11:00:00.727Z,52.89
2018-10-07T11:04:48.081Z,52.90
2018-10-07T11:07:29.497Z,53.47
2018-10-07T11:12:20.832Z,52.22
2018-10-07T11:15:31.495Z,51.84
2018-10-07T11:18:51.098Z,51.39
2018-10-07T11:22:37.563Z,47.47
2018-10-07T11:28:29.865Z,47.62
2018-10-07T11:32:08.140Z,47.03
2018-10-07T11:35:56.681Z,46.47
2018-10-07T11:40:43.502Z,45.74
2018-10-07T11:43:53.943Z,45.33
2018-10-07T11:46:41.394Z,39.90
2018-10-07T11:49:17.871Z,42.27
2018-10-07T11:54:04.590Z,42.49
2018-10-07T11:56:34.253Z,42.61
2018-10-07T11:59:03.805Z,41.27
2018-10-07T12:01:33.384Z,41.66
2018-10-07T12:04:03.202Z,42.27
2018-10-07T12:06:32.789Z,43.20
2018-10-07T12:09:02.459Z,41.91
2018-10-07T12:11:32.002Z,42.33
2018-10-07T12:14:01.604Z,41.01
2018-10-07T12:16:31.309Z,40.66
2018-10-07T12:19:00.733Z,40.44
2018-10-07T12:21:30.302Z,40.00
2018-10-07T12:23:59.859Z,39.74
2018-10-07T12:26:29.441Z,40.17
2018-10-07T12:28:59.068Z,39.54
2018-10-07T12:31:28.603Z,39.87
2018-10-07T12:33:58.181Z,40.38
2018-10-07T12:36:27.791Z,41.28
2018-10-07T12:38:57.404Z,41.82
2018-10-07T12:41:26.953Z,41.52
2018-10-07T12:43:56.554Z,42.06
2018-10-07T12:46:26.853Z,42.72
2018-10-07T12:48:56.767Z,43.56
2018-10-07T12:51:26.651Z,43.51
2018-10-07T12:53:56.199Z,42.71
2018-10-07T12:56:25.803Z,40.81
2018-10-07T12:58:55.457Z,39.70
2018-10-07T13:01:25.030Z,40.00
2018-10-07T13:03:54.771Z,39.92
2018-10-07T13:06:24.298Z,39.50
2018-10-07T13:08:53.904Z,39.65
2018-10-07T13:11:23.523Z,38.21
2018-10-07T13:13:53.175Z,37.07
2018-10-07T13:16:22.734Z,36.95
2018-10-07T13:18:52.287Z,36.60
2018-10-07T13:21:21.843Z,35.78
2018-10-07T13:23:51.443Z,35.57
2018-10-07T13:26:21.038Z,36.16
2018-10-07T13:28:50.659Z,37.10
2018-10-07T13:31:20.219Z,37.77
2018-10-07T13:33:49.820Z,36.54
2018-10-07T13:36:19.363Z,34.83
2018-10-07T13:38:48.915Z,34.20
2018-10-07T13:41:18.584Z,33.43
2018-10-07T13:43:48.185Z,33.66
2018-10-07T13:46:17.728Z,34.27
2018-10-07T13:48:47.287Z,35.98
2018-10-07T13:51:16.841Z,37.13
2018-10-07T13:53:46.378Z,37.97
2018-10-07T13:56:15.967Z,38.71
2018-10-07T13:58:45.526Z,39.29
2018-10-07T14:01:15.139Z,39.50
2018-10-07T14:03:44.736Z,39.11
2018-10-07T14:06:14.363Z,40.26
2018-10-07T14:08:43.954Z,40.48
2018-10-07T14:11:13.867Z,41.18
2018-10-07T14:13:43.935Z,41.11
2018-10-07T14:16:13.502Z,41.46
2018-10-07T14:18:45.438Z,41.19
2018-10-07T14:21:18.095Z,41.13
2018-10-07T14:23:47.657Z,41.86
2018-10-07T14:26:17.250Z,41.71
2018-10-07T14:28:47.113Z,42.57
2018-10-07T14:31:17.182Z,42.15
2018-10-07T14:34:39.615Z,41.69
2018-10-07T14:37:09.535Z,41.65
2018-10-07T14:39:39.341Z,42.36
2018-10-07T14:42:09.149Z,42.92
2018-10-07T14:44:38.972Z,42.93
2018-10-07T14:47:08.880Z,42.56
2018-10-07T14:49:38.674Z,43.28
2018-10-07T14:52:08.480Z,43.09
2018-10-07T14:54:38.359Z,42.35
2018-10-07T14:57:08.136Z,42.80
2018-10-07T14:59:37.948Z,42.74
2018-10-07T15:02:07.858Z,42.92
2018-10-07T15:04:37.563Z,42.70
2018-10-07T15:09:49.353Z,42.23
2018-10-07T15:12:21.631Z,43.10
2018-10-07T15:14:51.461Z,42.79
2018-10-07T15:17:21.261Z,43.47
2018-10-07T15:19:51.153Z,43.74
2018-10-07T15:22:20.999Z,43.62
2018-10-07T15:24:50.623Z,44.10
2018-10-07T15:27:20.222Z,44.52
2018-10-07T15:29:50.118Z,44.79
2018-10-07T15:32:19.648Z,43.71
2018-10-07T15:34:49.190Z,43.25
2018-10-07T15:37:18.763Z,43.36
2018-10-07T15:39:48.341Z,41.70
2018-10-07T15:42:17.899Z,40.84
2018-10-07T15:44:47.450Z,40.55
2018-10-07T15:47:17.126Z,40.05
2018-10-07T15:49:47.010Z,38.79
2018-10-07T15:52:16.587Z,39.28
2018-10-07T15:54:46.402Z,38.82
2018-10-07T15:57:16.064Z,39.41
2018-10-07T15:59:45.627Z,41.15
2018-10-07T16:02:19.679Z,41.64
2018-10-07T16:04:51.325Z,42.24
2018-10-07T16:07:20.910Z,42.30
2018-10-07T16:09:50.495Z,42.89
2018-10-07T16:12:20.054Z,43.20
2018-10-07T16:14:49.582Z,44.16
2018-10-07T16:17:19.148Z,45.20
2018-10-07T16:19:48.708Z,45.86
2018-10-07T16:22:18.269Z,45.74
2018-10-07T16:24:48.051Z,46.91
2018-10-07T16:29:52.765Z,47.37
2018-10-07T16:32:22.700Z,48.68
2018-10-07T16:34:52.700Z,49.02
2018-10-07T16:37:22.620Z,49.07
2018-10-07T16:39:52.538Z,49.94
2018-10-07T16:44:56.473Z,51.22
2018-10-07T16:47:26.274Z,51.54
2018-10-07T16:49:56.169Z,51.93
2018-10-07T16:52:25.746Z,52.55
2018-10-07T16:54:55.291Z,54.11
2018-10-07T16:57:24.820Z,53.71
2018-10-07T16:59:54.359Z,54.18
2018-10-07T17:02:23.914Z,55.15
2018-10-07T17:04:53.844Z,54.55
2018-10-07T17:07:24.156Z,55.95
2018-10-07T17:09:54.071Z,56.02
2018-10-07T17:12:24.096Z,56.87
2018-10-07T17:14:54.014Z,58.19
2018-10-07T17:17:23.930Z,58.63
2018-10-07T17:19:53.837Z,58.16
2018-10-07T17:22:23.858Z,58.65
2018-10-07T17:24:53.970Z,59.13
2018-10-07T17:27:24.078Z,58.78
2018-10-07T17:29:53.921Z,59.07
2018-10-07T17:32:23.787Z,59.35
2018-10-07T17:34:53.629Z,60.11
2018-10-07T17:37:23.950Z,60.58
2018-10-07T17:44:47.745Z,60.82
2018-10-07T17:47:17.660Z,61.69
2018-10-07T17:49:47.575Z,62.10
2018-10-07T17:52:17.494Z,62.26
2018-10-07T17:54:47.348Z,62.68
2018-10-07T17:57:17.221Z,62.73
2018-10-07T18:02:21.879Z,63.28
2018-10-07T18:04:51.786Z,63.44
2018-10-07T18:07:25.073Z,63.24
2018-10-07T18:09:55.198Z,64.06
2018-10-07T18:12:25.102Z,64.24
2018-10-07T18:14:55.021Z,64.75
2018-10-07T18:17:25.258Z,64.88
2018-10-07T18:19:55.241Z,65.42
2018-10-07T18:25:01.948Z,66.17
2018-10-07T18:27:31.863Z,66.08
2018-10-07T18:30:01.782Z,66.05
2018-10-07T18:32:31.692Z,66.41
2018-10-07T18:35:01.932Z,66.40
2018-10-07T18:37:31.731Z,66.81
2018-10-07T18:40:01.615Z,67.01
2018-10-07T18:42:31.397Z,67.56
2018-10-07T18:45:01.395Z,67.54
2018-10-07T18:47:31.322Z,67.91
2018-10-07T18:50:01.201Z,68.04
2018-10-07T18:52:31.106Z,67.67
2018-10-07T18:55:01.015Z,68.08
2018-10-07T18:57:30.934Z,67.61
2018-10-07T19:00:00.752Z,68.12
2018-10-07T19:02:30.616Z,67.57
2018-10-07T19:05:00.475Z,68.50
2018-10-07T19:07:30.390Z,68.61
2018-10-07T19:12:37.294Z,68.98
2018-10-07T19:17:34.336Z,68.90
2018-10-07T19:20:04.158Z,69.17
2018-10-07T19:22:33.976Z,68.96
2018-10-07T19:25:04.111Z,69.41
2018-10-07T19:27:34.238Z,69.60
2018-10-07T19:30:16.011Z,69.73
2018-10-07T19:32:46.127Z,69.66
2018-10-07T19:35:16.193Z,69.76
2018-10-07T19:37:46.058Z,70.21
2018-10-07T19:40:15.883Z,70.08
2018-10-07T19:42:45.731Z,70.42
2018-10-07T19:45:16.031Z,70.46
2018-10-07T19:47:45.918Z,70.44
2018-10-07T19:50:15.881Z,70.42
2018-10-07T19:52:45.859Z,70.65
2018-10-07T19:55:15.962Z,71.02
2018-10-07T19:57:46.194Z,70.88
2018-10-07T20:00:16.079Z,70.64
2018-10-07T20:02:45.595Z,71.00
2018-10-07T20:05:15.119Z,70.93
2018-10-07T20:07:44.715Z,70.90
2018-10-07T20:10:14.294Z,71.14
2018-10-07T20:12:44.006Z,71.39
2018-10-07T20:15:13.850Z,71.09
2018-10-07T20:17:43.408Z,71.08
2018-10-07T20:20:12.976Z,71.93
2018-10-07T20:22:42.531Z,71.62
2018-10-07T20:25:12.093Z,71.61
2018-10-07T20:27:41.639Z,71.76
2018-10-07T20:30:11.226Z,71.94
2018-10-07T20:32:40.771Z,71.85
2018-10-07T20:35:10.379Z,72.12
2018-10-07T20:37:39.938Z,72.32
2018-10-07T20:40:09.558Z,72.00
2018-10-07T20:42:39.068Z,71.55
2018-10-07T20:45:08.630Z,71.85
2018-10-07T20:47:38.196Z,72.49
2018-10-07T20:50:07.784Z,72.17
2018-10-07T20:52:37.742Z,72.38
2018-10-07T20:55:07.508Z,72.76
2018-10-07T20:57:37.074Z,72.54
2018-10-07T21:00:06.887Z,73.19
2018-10-07T21:02:36.513Z,72.80
2018-10-07T21:05:06.402Z,72.68
2018-10-07T21:07:35.922Z,73.31
2018-10-07T21:10:05.526Z,72.76
2018-10-07T21:12:35.077Z,73.09
2018-10-07T21:15:09.484Z,72.65
2018-10-07T21:17:39.114Z,73.07
2018-10-07T21:20:33.174Z,72.97
2018-10-07T21:23:02.694Z,72.87
2018-10-07T21:25:32.254Z,73.16
2018-10-07T21:28:01.899Z,72.95
2018-10-07T21:30:31.463Z,73.32
2018-10-07T21:33:01.364Z,73.08
2018-10-07T21:35:30.886Z,73.68
2018-10-07T21:38:05.559Z,73.25
2018-10-07T21:40:35.109Z,73.55
2018-10-07T21:43:04.658Z,73.12
2018-10-07T21:45:34.221Z,73.24
2018-10-07T21:48:03.758Z,73.27
2018-10-07T21:50:33.294Z,73.20
2018-10-07T21:53:02.845Z,73.50
2018-10-07T21:55:32.957Z,73.00
2018-10-07T21:58:02.602Z,73.32
2018-10-07T22:00:32.141Z,73.31
2018-10-07T22:03:01.712Z,73.77
2018-10-07T22:05:31.238Z,73.57
2018-10-07T22:08:01.050Z,73.27
2018-10-07T22:10:30.605Z,73.43
2018-10-07T22:13:00.342Z,73.37
2018-10-07T22:15:29.886Z,73.42
2018-10-07T22:17:59.463Z,73.39
2018-10-07T22:20:28.989Z,73.62
2018-10-07T22:22:58.566Z,73.19
2018-10-07T22:25:28.161Z,73.44
2018-10-07T22:27:57.692Z,73.46
2018-10-07T22:30:27.216Z,73.34
2018-10-07T22:32:57.014Z,73.29
2018-10-07T22:35:26.551Z,73.46
2018-10-07T22:37:56.087Z,73.42
2018-10-07T22:40:25.617Z,73.72
2018-10-07T22:42:55.155Z,73.42
2018-10-07T22:45:24.686Z,73.32
2018-10-07T22:47:54.219Z,73.70
2018-10-07T22:50:23.750Z,73.64
2018-10-07T22:52:53.363Z,73.76
2018-10-07T22:55:22.882Z,73.83
2018-10-07T22:57:52.432Z,73.55
2018-10-07T23:00:22.144Z,73.69
2018-10-07T23:03:01.875Z,73.96
2018-10-07T23:05:42.295Z,73.75
2018-10-07T23:08:20.708Z,74.10
2018-10-07T23:10:59.477Z,73.70
2018-10-07T23:13:38.041Z,73.94
2018-10-07T23:16:15.914Z,73.92
2018-10-07T23:18:54.685Z,73.98
2018-10-07T23:21:33.673Z,74.29
2018-10-07T23:24:13.195Z,73.76
2018-10-07T23:26:51.062Z,74.02
2018-10-07T23:29:29.752Z,74.02
2018-10-07T23:32:04.691Z,73.81
2018-10-07T23:34:43.304Z,73.70
2018-10-07T23:37:22.368Z,74.17
2018-10-07T23:40:01.290Z,74.00
2018-10-07T23:42:43.789Z,73.68
2018-10-07T23:45:22.268Z,74.01
2018-10-07T23:48:04.727Z,73.95
2018-10-07T23:50:39.142Z,74.02
2018-10-07T23:53:19.609Z,74.23
2018-10-07T23:55:56.836Z,74.05
2018-10-07T23:58:35.277Z,74.31
